GJ25W NWWP-NWWD
Flight info
| Callsign | GJ25W |
|---|---|
| Flight time | 0h 25m |
| Altitude | 7000 |
| Route | NWWP 2020S16409E 2033S16417E 2040S16424E 2050S16428E 2057S16441E NWWD |
| Aircraft | BE58/L-SDFGRY/C |
Departure
| Time | 2026-05-09 21:08 |
|---|---|
| Airport | Poum / Malabou Airport (NWWP) |
Arrival
| Time | 2026-05-09 21:34 |
|---|---|
| Airport | Koné Airport (NWWD) |
| Time | Latitude | Longitude | Altitude | Speed | Heading |
|---|---|---|---|---|---|
| 2026-05-09 21:01 | -20.29210 | 164.10400 | 4 ft | 0 kts | 300° |
| 2026-05-09 21:04 | -20.29218 | 164.10386 | 3 ft | 6 kts | 232° |
| 2026-05-09 21:04 | -20.29220 | 164.10317 | 2 ft | 13 kts | 301° |
| 2026-05-09 21:04 | -20.29146 | 164.10222 | 2 ft | 21 kts | 311° |
| 2026-05-09 21:05 | -20.29035 | 164.10082 | -1 ft | 29 kts | 309° |
| 2026-05-09 21:05 | -20.28896 | 164.09903 | 0 ft | 34 kts | 310° |
| 2026-05-09 21:05 | -20.28736 | 164.09698 | 3 ft | 36 kts | 309° |
| 2026-05-09 21:05 | -20.28619 | 164.09544 | 3 ft | 16 kts | 308° |
| 2026-05-09 21:06 | -20.28571 | 164.09475 | 3 ft | 9 kts | 11° |
| 2026-05-09 21:06 | -20.28564 | 164.09496 | 3 ft | 0 kts | 124° |
| 2026-05-09 21:07 | -20.28579 | 164.09516 | 3 ft | 12 kts | 131° |
| 2026-05-09 21:07 | -20.28729 | 164.09695 | 4 ft | 54 kts | 130° |
| 2026-05-09 21:07 | -20.29081 | 164.10145 | 1 ft | 101 kts | 131° |
| 2026-05-09 21:07 | -20.29585 | 164.10745 | 200 ft | 115 kts | 133° |
| 2026-05-09 21:08 | -20.30171 | 164.11375 | 586 ft | 123 kts | 134° |
| 2026-05-09 21:08 | -20.30752 | 164.12056 | 1015 ft | 126 kts | 131° |
| 2026-05-09 21:08 | -20.31302 | 164.12797 | 1412 ft | 130 kts | 129° |
| 2026-05-09 21:08 | -20.31855 | 164.13520 | 1867 ft | 128 kts | 130° |
| 2026-05-09 21:09 | -20.32437 | 164.14260 | 2154 ft | 135 kts | 130° |
| 2026-05-09 21:09 | -20.33091 | 164.15040 | 2296 ft | 149 kts | 136° |
| 2026-05-09 21:09 | -20.33853 | 164.15786 | 2570 ft | 148 kts | 136° |
| 2026-05-09 21:09 | -20.34589 | 164.16558 | 2836 ft | 148 kts | 134° |
| 2026-05-09 21:10 | -20.35296 | 164.17361 | 3093 ft | 149 kts | 133° |
| 2026-05-09 21:10 | -20.36001 | 164.18173 | 3356 ft | 150 kts | 133° |
| 2026-05-09 21:10 | -20.36878 | 164.18755 | 3598 ft | 151 kts | 158° |
| 2026-05-09 21:10 | -20.37873 | 164.19127 | 3852 ft | 152 kts | 159° |
| 2026-05-09 21:11 | -20.38871 | 164.19501 | 4102 ft | 152 kts | 159° |
| 2026-05-09 21:12 | -20.42636 | 164.21336 | 5090 ft | 147 kts | 152° |
| 2026-05-09 21:12 | -20.43552 | 164.21819 | 5336 ft | 147 kts | 153° |
| 2026-05-09 21:12 | -20.44465 | 164.22299 | 5580 ft | 145 kts | 152° |
| 2026-05-09 21:12 | -20.45380 | 164.22781 | 5833 ft | 149 kts | 153° |
| 2026-05-09 21:13 | -20.46305 | 164.23266 | 6081 ft | 152 kts | 153° |
| 2026-05-09 21:13 | -20.47261 | 164.23766 | 6334 ft | 154 kts | 153° |
| 2026-05-09 21:13 | -20.48230 | 164.24274 | 6582 ft | 155 kts | 153° |
| 2026-05-09 21:13 | -20.49188 | 164.24777 | 6829 ft | 152 kts | 153° |
| 2026-05-09 21:14 | -20.50143 | 164.25278 | 6992 ft | 157 kts | 153° |
| 2026-05-09 21:14 | -20.51156 | 164.25811 | 7000 ft | 166 kts | 153° |
| 2026-05-09 21:14 | -20.52210 | 164.26364 | 7003 ft | 171 kts | 154° |
| 2026-05-09 21:14 | -20.53294 | 164.26933 | 7005 ft | 176 kts | 154° |
| 2026-05-09 21:15 | -20.54381 | 164.27503 | 7009 ft | 177 kts | 154° |
| 2026-05-09 21:15 | -20.55455 | 164.28142 | 7004 ft | 178 kts | 141° |
| 2026-05-09 21:15 | -20.56330 | 164.29070 | 7009 ft | 176 kts | 135° |
| 2026-05-09 21:15 | -20.57185 | 164.29969 | 7005 ft | 169 kts | 136° |
| 2026-05-09 21:16 | -20.58010 | 164.30830 | 6994 ft | 164 kts | 136° |
| 2026-05-09 21:16 | -20.58811 | 164.31673 | 6991 ft | 160 kts | 136° |
| 2026-05-09 21:16 | -20.59599 | 164.32504 | 6993 ft | 157 kts | 136° |
| 2026-05-09 21:16 | -20.60370 | 164.33317 | 6989 ft | 155 kts | 136° |
| 2026-05-09 21:17 | -20.61124 | 164.34109 | 6990 ft | 153 kts | 136° |
| 2026-05-09 21:17 | -20.61879 | 164.34905 | 6993 ft | 152 kts | 136° |
| 2026-05-09 21:17 | -20.62630 | 164.35697 | 6988 ft | 151 kts | 136° |
| 2026-05-09 21:17 | -20.63376 | 164.36482 | 6993 ft | 151 kts | 136° |
| 2026-05-09 21:18 | -20.64128 | 164.37275 | 6994 ft | 153 kts | 136° |
| 2026-05-09 21:18 | -20.64888 | 164.38076 | 6995 ft | 154 kts | 136° |
| 2026-05-09 21:18 | -20.65651 | 164.38881 | 6998 ft | 155 kts | 136° |
| 2026-05-09 21:18 | -20.66433 | 164.39651 | 6998 ft | 156 kts | 147° |
| 2026-05-09 21:19 | -20.69428 | 164.40983 | 7004 ft | 155 kts | 158° |
| 2026-05-09 21:19 | -20.70428 | 164.41419 | 7002 ft | 156 kts | 158° |
| 2026-05-09 21:20 | -20.71430 | 164.41855 | 7004 ft | 155 kts | 158° |
| 2026-05-09 21:20 | -20.72430 | 164.42292 | 7007 ft | 155 kts | 158° |
| 2026-05-09 21:20 | -20.73433 | 164.42729 | 7009 ft | 155 kts | 158° |
| 2026-05-09 21:20 | -20.74435 | 164.43165 | 7008 ft | 155 kts | 158° |
| 2026-05-09 21:21 | -20.75431 | 164.43597 | 7004 ft | 154 kts | 158° |
| 2026-05-09 21:21 | -20.76410 | 164.44025 | 7003 ft | 154 kts | 158° |
| 2026-05-09 21:21 | -20.77400 | 164.44458 | 7006 ft | 154 kts | 158° |
| 2026-05-09 21:21 | -20.78398 | 164.44890 | 7007 ft | 155 kts | 158° |
| 2026-05-09 21:22 | -20.79394 | 164.45326 | 7003 ft | 155 kts | 158° |
| 2026-05-09 21:22 | -20.80391 | 164.45761 | 7007 ft | 154 kts | 158° |
| 2026-05-09 21:22 | -20.81386 | 164.46195 | 7006 ft | 154 kts | 158° |
| 2026-05-09 21:22 | -20.82379 | 164.46629 | 7009 ft | 154 kts | 158° |
| 2026-05-09 21:23 | -20.83338 | 164.47144 | 7004 ft | 156 kts | 141° |
| 2026-05-09 21:23 | -20.83981 | 164.48055 | 7002 ft | 157 kts | 120° |
| 2026-05-09 21:23 | -20.84501 | 164.49086 | 7008 ft | 158 kts | 121° |
| 2026-05-09 21:23 | -20.85032 | 164.50113 | 7003 ft | 158 kts | 120° |
| 2026-05-09 21:24 | -20.85559 | 164.51136 | 7004 ft | 157 kts | 120° |
| 2026-05-09 21:24 | -20.86085 | 164.52161 | 7004 ft | 157 kts | 120° |
| 2026-05-09 21:24 | -20.86686 | 164.53132 | 7003 ft | 157 kts | 136° |
| 2026-05-09 21:24 | -20.87499 | 164.53910 | 7004 ft | 157 kts | 140° |
| 2026-05-09 21:25 | -20.88315 | 164.54675 | 7005 ft | 156 kts | 140° |
| 2026-05-09 21:25 | -20.89125 | 164.55435 | 6997 ft | 157 kts | 140° |
| 2026-05-09 21:25 | -20.89946 | 164.56202 | 7000 ft | 156 kts | 140° |
| 2026-05-09 21:25 | -20.90763 | 164.56967 | 7005 ft | 156 kts | 140° |
| 2026-05-09 21:26 | -20.91561 | 164.57751 | 6978 ft | 157 kts | 138° |
| 2026-05-09 21:26 | -20.92365 | 164.58560 | 6894 ft | 161 kts | 138° |
| 2026-05-09 21:26 | -20.93207 | 164.59405 | 6700 ft | 171 kts | 138° |
| 2026-05-09 21:26 | -20.94078 | 164.60275 | 6411 ft | 170 kts | 138° |
| 2026-05-09 21:27 | -20.94920 | 164.61119 | 6109 ft | 167 kts | 138° |
| 2026-05-09 21:27 | -20.95765 | 164.61964 | 5819 ft | 166 kts | 138° |
| 2026-05-09 21:27 | -20.96605 | 164.62803 | 5512 ft | 165 kts | 138° |
| 2026-05-09 21:27 | -20.97442 | 164.63629 | 5212 ft | 163 kts | 141° |
| 2026-05-09 21:28 | -20.98376 | 164.64287 | 4911 ft | 160 kts | 150° |
| 2026-05-09 21:28 | -20.99329 | 164.64885 | 4612 ft | 158 kts | 150° |
| 2026-05-09 21:28 | -21.00269 | 164.65472 | 4315 ft | 155 kts | 150° |
| 2026-05-09 21:28 | -21.01200 | 164.66050 | 4009 ft | 154 kts | 150° |
| 2026-05-09 21:29 | -21.02125 | 164.66621 | 3716 ft | 153 kts | 150° |
| 2026-05-09 21:29 | -21.02974 | 164.67262 | 3415 ft | 152 kts | 129° |
| 2026-05-09 21:29 | -21.03330 | 164.68332 | 3118 ft | 155 kts | 102° |
| 2026-05-09 21:29 | -21.03402 | 164.69488 | 2822 ft | 155 kts | 96° |
| 2026-05-09 21:30 | -21.03437 | 164.70633 | 2524 ft | 153 kts | 96° |
| 2026-05-09 21:30 | -21.03470 | 164.71765 | 2220 ft | 151 kts | 96° |
| 2026-05-09 21:30 | -21.03540 | 164.72866 | 1953 ft | 146 kts | 101° |
| 2026-05-09 21:30 | -21.03673 | 164.73932 | 1742 ft | 143 kts | 102° |
| 2026-05-09 21:31 | -21.03820 | 164.74989 | 1526 ft | 143 kts | 102° |
| 2026-05-09 21:31 | -21.03985 | 164.76016 | 1433 ft | 142 kts | 105° |
| 2026-05-09 21:31 | -21.04182 | 164.77055 | 1390 ft | 143 kts | 105° |
| 2026-05-09 21:31 | -21.04361 | 164.78074 | 1172 ft | 135 kts | 103° |
| 2026-05-09 21:32 | -21.04456 | 164.78999 | 1002 ft | 116 kts | 100° |
| 2026-05-09 21:32 | -21.04618 | 164.79831 | 774 ft | 111 kts | 110° |
| 2026-05-09 21:32 | -21.04808 | 164.80642 | 576 ft | 112 kts | 108° |
| 2026-05-09 21:32 | -21.04949 | 164.81414 | 421 ft | 93 kts | 105° |
| 2026-05-09 21:33 | -21.05053 | 164.82047 | 267 ft | 84 kts | 106° |
| 2026-05-09 21:33 | -21.05162 | 164.82673 | 168 ft | 88 kts | 104° |
| 2026-05-09 21:33 | -21.05263 | 164.83318 | 43 ft | 86 kts | 104° |
| 2026-05-09 21:33 | -21.05362 | 164.83894 | 14 ft | 70 kts | 102° |
| 2026-05-09 21:34 | -21.05414 | 164.84253 | 9 ft | 21 kts | 97° |
| 2026-05-09 21:34 | -21.05437 | 164.84294 | 10 ft | 12 kts | 278° |
| 2026-05-09 21:34 | -21.05414 | 164.84152 | 9 ft | 26 kts | 278° |
| 2026-05-09 21:34 | -21.05376 | 164.83943 | 14 ft | 25 kts | 282° |
| 2026-05-09 21:35 | -21.05399 | 164.83867 | 14 ft | 8 kts | 154° |
| 2026-05-09 21:35 | -21.05416 | 164.83915 | 14 ft | 7 kts | 143° |
| 2026-05-09 21:35 | -21.05433 | 164.83890 | 14 ft | 9 kts | 287° |
| 2026-05-09 21:35 | -21.05405 | 164.83841 | 14 ft | 0 kts | 33° |
| 2026-05-09 21:40 | -21.05400 | 164.83845 | 14 ft | 5 kts | 53° |
| 2026-05-09 21:40 | -21.05354 | 164.83834 | 14 ft | 18 kts | 278° |
| 2026-05-09 21:41 | -21.05327 | 164.83658 | 17 ft | 29 kts | 279° |
| 2026-05-09 21:41 | -21.05288 | 164.83415 | 22 ft | 33 kts | 279° |
| 2026-05-09 21:41 | -21.05265 | 164.83323 | 23 ft | 8 kts | 71° |
| 2026-05-09 21:41 | -21.05276 | 164.83367 | 22 ft | 0 kts | 98° |
| 2026-05-09 21:42 | -21.05288 | 164.83444 | 21 ft | 32 kts | 99° |
| 2026-05-09 21:42 | -21.05358 | 164.83880 | 14 ft | 86 kts | 99° |
| 2026-05-09 21:42 | -21.05520 | 164.84595 | 196 ft | 106 kts | 118° |
| 2026-05-09 21:43 | -21.06061 | 164.85137 | 530 ft | 112 kts | 156° |
| 2026-05-09 21:43 | -21.06838 | 164.85266 | 880 ft | 116 kts | 184° |
| 2026-05-09 21:43 | -21.07679 | 164.84943 | 1016 ft | 142 kts | 191° |
| 2026-05-09 21:43 | -21.08705 | 164.84898 | 1263 ft | 152 kts | 169° |
| 2026-05-09 21:44 | -21.09751 | 164.85132 | 1539 ft | 159 kts | 166° |
| 2026-05-09 21:44 | -21.10837 | 164.85415 | 1811 ft | 162 kts | 165° |
| 2026-05-09 21:44 | -21.11937 | 164.85711 | 2071 ft | 164 kts | 165° |
| 2026-05-09 21:44 | -21.13043 | 164.86010 | 2328 ft | 165 kts | 164° |
| 2026-05-09 21:45 | -21.14156 | 164.86309 | 2579 ft | 165 kts | 165° |
| 2026-05-09 21:45 | -21.15270 | 164.86609 | 2832 ft | 165 kts | 164° |
| 2026-05-09 21:45 | -21.16380 | 164.86908 | 3085 ft | 164 kts | 164° |
| 2026-05-09 21:45 | -21.17487 | 164.87204 | 3332 ft | 163 kts | 165° |
| 2026-05-09 21:46 | -21.18570 | 164.87497 | 3575 ft | 163 kts | 165° |
| 2026-05-09 21:46 | -21.19670 | 164.87794 | 3823 ft | 163 kts | 165° |
| 2026-05-09 21:46 | -21.20769 | 164.88090 | 4076 ft | 163 kts | 165° |
| 2026-05-09 21:46 | -21.21864 | 164.88388 | 4318 ft | 163 kts | 165° |
| 2026-05-09 21:47 | -21.22967 | 164.88682 | 4569 ft | 164 kts | 166° |
| 2026-05-09 21:47 | -21.24073 | 164.88976 | 4823 ft | 164 kts | 166° |
| 2026-05-09 21:47 | -21.25180 | 164.89269 | 5060 ft | 163 kts | 166° |
| 2026-05-09 21:47 | -21.26272 | 164.89586 | 5310 ft | 163 kts | 156° |
| 2026-05-09 21:48 | -21.27029 | 164.90437 | 5506 ft | 168 kts | 114° |
| 2026-05-09 21:48 | -21.27361 | 164.91689 | 5518 ft | 180 kts | 112° |
| 2026-05-09 21:48 | -21.27909 | 164.92917 | 5525 ft | 185 kts | 121° |
| 2026-05-09 21:48 | -21.28564 | 164.94127 | 5525 ft | 189 kts | 122° |
| 2026-05-09 21:49 | -21.29221 | 164.95357 | 5524 ft | 191 kts | 121° |